Time;durP1;ratioP1;P1;durP2;ratioP2;P2;SDS_P1;SDS_P2;PMS_P1;PMS_P2;Temp;Humidity;BMP_temperature;BMP_pressure;BME280_temperature;BME280_humidity;BME280_pressure;Samples;Min_cycle;Max_cycle;Signal;HPM_P1;HPM_P2
2023/09/08 00:00:51;;;;;;;7.57;2.70;;;;;;;20.60;49.98;100207.63;4464688;32;32119;-70
2023/09/08 00:03:21;;;;;;;3.83;2.10;;;;;;;20.60;50.05;100211.19;4464826;32;33337;-70
2023/09/08 00:05:49;;;;;;;5.82;2.45;;;;;;;20.67;49.92;100209.53;4461586;32;33629;-70
2023/09/08 00:08:17;;;;;;;4.25;2.05;;;;;;;20.66;49.88;100207.78;4465573;32;32467;-70
2023/09/08 00:10:45;;;;;;;7.20;3.47;;;;;;;20.68;49.90;100211.22;4466462;32;33446;-70
2023/09/08 00:13:12;;;;;;;8.18;3.15;;;;;;;20.74;49.73;100212.41;4460563;32;33590;-70
2023/09/08 00:15:40;;;;;;;5.68;3.40;;;;;;;20.43;50.45;100209.44;4462895;32;34421;-70
2023/09/08 00:18:08;;;;;;;7.70;4.00;;;;;;;20.57;50.16;100213.41;4464497;32;34012;-70
2023/09/08 00:20:36;;;;;;;6.12;3.30;;;;;;;20.48;50.41;100216.09;4466119;32;34514;-70
2023/09/08 00:23:03;;;;;;;6.80;3.15;;;;;;;20.28;51.04;100213.81;4463584;32;32299;-70
2023/09/08 00:25:31;;;;;;;6.80;3.42;;;;;;;20.19;51.34;100219.25;4462498;32;33748;-70
2023/09/08 00:27:59;;;;;;;6.22;2.67;;;;;;;20.12;51.57;100212.75;4463400;32;35527;-70
2023/09/08 00:30:26;;;;;;;6.75;3.65;;;;;;;20.30;51.06;100215.34;4466312;32;33816;-70
2023/09/08 00:32:54;;;;;;;6.47;2.78;;;;;;;20.27;51.08;100214.84;4464057;32;32808;-70
2023/09/08 00:35:22;;;;;;;4.50;2.75;;;;;;;20.35;50.84;100209.41;4457323;32;33520;-69
2023/09/08 00:37:49;;;;;;;6.37;3.35;;;;;;;20.39;50.65;100218.97;4446551;32;33842;-70
2023/09/08 00:40:17;;;;;;;5.15;3.03;;;;;;;20.40;50.54;100216.06;4447586;32;34298;-70
2023/09/08 00:42:45;;;;;;;5.70;2.45;;;;;;;20.34;50.71;100203.13;4450641;32;33950;-71
2023/09/08 00:45:12;;;;;;;5.22;3.20;;;;;;;20.31;50.76;100208.91;4445321;32;33596;-72
2023/09/08 00:47:40;;;;;;;6.10;3.08;;;;;;;20.26;51.00;100203.13;4449367;32;34058;-71
2023/09/08 00:50:08;;;;;;;9.32;3.15;;;;;;;20.31;50.90;100199.91;4448622;32;34679;-71
2023/09/08 00:52:36;;;;;;;11.27;4.47;;;;;;;20.25;51.13;100204.13;4450465;32;33811;-71
2023/09/08 00:55:04;;;;;;;14.20;4.45;;;;;;;20.05;51.77;100206.28;4448785;32;34867;-71
2023/09/08 00:57:32;;;;;;;5.12;2.53;;;;;;;20.20;51.36;100195.63;4435211;32;34322;-72
2023/09/08 01:00:00;;;;;;;6.00;3.42;;;;;;;19.95;52.08;100194.69;4443205;32;34845;-72
2023/09/08 01:02:28;;;;;;;6.85;2.42;;;;;;;19.71;52.85;100190.88;4432587;32;33327;-72
2023/09/08 01:04:56;;;;;;;9.50;2.75;;;;;;;19.50;53.29;100190.41;4447593;32;33716;-71
2023/09/08 01:07:23;;;;;;;6.70;3.03;;;;;;;19.85;52.39;100191.28;4435444;32;34160;-72
2023/09/08 01:09:51;;;;;;;12.50;3.05;;;;;;;19.80;52.44;100180.88;4450673;32;33768;-72
2023/09/08 01:12:19;;;;;;;7.75;2.67;;;;;;;19.77;52.41;100178.50;4436522;32;33143;-72
2023/09/08 01:14:47;;;;;;;4.53;2.62;;;;;;;20.02;51.63;100184.88;4449145;32;34195;-71
2023/09/08 01:17:14;;;;;;;9.07;2.87;;;;;;;20.10;51.52;100184.91;4456268;32;34721;-71
2023/09/08 01:19:43;;;;;;;4.95;2.65;;;;;;;20.01;51.70;100183.19;4450873;32;33733;-71
2023/09/08 01:22:45;;;;;;;3.42;2.25;;;;;;;20.02;51.66;100193.03;4453049;32;33651;-71
2023/09/08 01:25:24;;;;;;;4.03;2.42;;;;;;;20.11;51.44;100193.91;4389344;32;33441;-71
2023/09/08 01:27:53;;;;;;;5.15;2.30;;;;;;;20.08;51.33;100184.22;4377490;32;33870;-71
2023/09/08 01:30:23;;;;;;;5.37;3.30;;;;;;;19.99;51.63;100180.63;4385524;32;34960;-70
2023/09/08 01:32:52;;;;;;;6.95;2.33;;;;;;;20.01;51.51;100184.03;4390081;32;33605;-69
2023/09/08 01:35:20;;;;;;;5.05;2.97;;;;;;;20.05;51.21;100176.37;4369310;32;33521;-69
2023/09/08 01:37:48;;;;;;;5.62;2.80;;;;;;;20.02;51.34;100174.00;4371855;32;34064;-69
2023/09/08 01:40:16;;;;;;;3.92;2.40;;;;;;;20.07;51.36;100171.66;4383165;32;34050;-70
2023/09/08 01:42:45;;;;;;;8.52;2.95;;;;;;;20.09;51.46;100174.19;4377986;32;34407;-70
2023/09/08 01:45:12;;;;;;;5.37;3.08;;;;;;;20.12;51.56;100176.56;4386700;32;33928;-70
2023/09/08 01:47:41;;;;;;;5.90;3.12;;;;;;;20.11;51.85;100181.16;4390077;32;34550;-70
2023/09/08 01:50:09;;;;;;;8.20;3.25;;;;;;;20.13;51.81;100176.44;4371490;32;34729;-70
2023/09/08 01:52:37;;;;;;;5.00;2.58;;;;;;;20.07;51.87;100173.53;4377033;32;33016;-70
2023/09/08 01:55:05;;;;;;;7.85;2.92;;;;;;;20.10;51.59;100171.31;4385104;32;33828;-70
2023/09/08 01:57:32;;;;;;;6.28;2.80;;;;;;;20.07;51.49;100166.22;4382809;32;33722;-70
2023/09/08 02:00:00;;;;;;;6.68;3.03;;;;;;;20.11;51.08;100173.00;4379659;32;33305;-71
2023/09/08 02:02:28;;;;;;;4.37;2.40;;;;;;;20.13;51.07;100172.87;4419947;32;34106;-70
2023/09/08 02:04:56;;;;;;;5.07;2.58;;;;;;;20.09;51.14;100169.59;4443225;32;33601;-70
2023/09/08 02:07:23;;;;;;;7.30;2.67;;;;;;;19.98;51.49;100176.22;4452786;32;34996;-70
2023/09/08 02:09:51;;;;;;;5.65;2.30;;;;;;;19.91;51.79;100179.75;4450870;32;33403;-70
2023/09/08 02:12:19;;;;;;;5.70;2.75;;;;;;;19.92;51.91;100173.31;4449050;32;33016;-71
2023/09/08 02:14:47;;;;;;;8.52;3.47;;;;;;;19.73;52.46;100169.81;4448021;32;33851;-69
2023/09/08 02:17:15;;;;;;;6.62;4.25;;;;;;;19.81;52.39;100177.19;4451752;32;33923;-71
2023/09/08 02:19:44;;;;;;;5.53;3.22;;;;;;;19.70;52.70;100181.00;4451842;32;33748;-70
2023/09/08 02:22:12;;;;;;;6.37;3.42;;;;;;;19.47;53.17;100171.72;4451322;32;33467;-70
2023/09/08 02:24:39;;;;;;;5.12;2.37;;;;;;;19.42;53.50;100176.75;4450258;32;33696;-70
2023/09/08 02:27:07;;;;;;;6.00;2.37;;;;;;;19.65;53.00;100168.97;4453685;32;33788;-70
2023/09/08 02:29:36;;;;;;;4.10;2.37;;;;;;;19.49;53.23;100173.25;4449714;32;33544;-70
2023/09/08 02:32:04;;;;;;;7.97;2.58;;;;;;;19.63;52.93;100174.50;4453226;32;33561;-70
2023/09/08 02:34:36;;;;;;;4.90;2.95;;;;;;;19.73;52.66;100169.81;4449162;32;34726;-70
2023/09/08 02:37:06;;;;;;;4.90;2.42;;;;;;;19.65;53.03;100168.97;4464696;32;36689;-70
2023/09/08 02:39:34;;;;;;;4.78;2.15;;;;;;;19.54;53.54;100172.75;4462098;32;34070;-70
2023/09/08 02:42:02;;;;;;;6.50;2.83;;;;;;;19.70;53.21;100174.75;4466339;32;33534;-70
2023/09/08 02:44:29;;;;;;;5.28;2.92;;;;;;;19.82;52.92;100172.59;4465251;32;33781;-70
2023/09/08 02:46:57;;;;;;;9.10;3.37;;;;;;;19.86;52.88;100176.66;4468311;32;34168;-70
2023/09/08 02:49:25;;;;;;;6.18;2.58;;;;;;;19.77;53.27;100187.53;4467234;32;34638;-70
2023/09/08 02:51:53;;;;;;;7.62;3.50;;;;;;;19.73;53.29;100185.28;4447640;32;33219;-70
2023/09/08 02:54:21;;;;;;;8.07;3.28;;;;;;;19.83;52.97;100182.44;4465223;32;33642;-71
2023/09/08 02:56:48;;;;;;;4.72;2.62;;;;;;;19.82;52.81;100176.16;4466923;32;34070;-70
2023/09/08 02:59:18;;;;;;;5.40;2.58;;;;;;;19.83;52.76;100175.13;4467949;32;34867;-71
2023/09/08 03:01:46;;;;;;;7.50;3.35;;;;;;;19.62;53.13;100183.69;4465997;32;34552;-70
2023/09/08 03:04:14;;;;;;;5.43;2.50;;;;;;;19.67;52.88;100180.50;4465075;32;34781;-70
2023/09/08 03:06:41;;;;;;;3.78;2.25;;;;;;;19.63;53.04;100176.37;4466744;32;35018;-70
2023/09/08 03:09:09;;;;;;;7.35;2.75;;;;;;;19.43;53.49;100183.91;4466396;32;34154;-70
2023/09/08 03:11:37;;;;;;;3.80;2.17;;;;;;;19.54;53.25;100173.59;4468384;32;33585;-70
2023/09/08 03:14:07;;;;;;;4.78;2.47;;;;;;;19.51;53.54;100179.34;4463472;32;34833;-70
2023/09/08 03:16:34;;;;;;;5.47;2.62;;;;;;;19.43;54.03;100175.78;4466791;32;34020;-70
2023/09/08 03:19:03;;;;;;;5.75;2.95;;;;;;;19.41;53.92;100175.91;4466710;32;34051;-70
2023/09/08 03:21:31;;;;;;;7.32;4.60;;;;;;;19.50;53.69;100179.53;4468178;32;33336;-70
2023/09/08 03:23:59;;;;;;;4.25;2.35;;;;;;;19.57;53.32;100175.16;4466824;32;33804;-70
2023/09/08 03:26:26;;;;;;;5.03;2.10;;;;;;;19.55;53.49;100177.19;4468468;32;35328;-70
2023/09/08 03:28:54;;;;;;;8.50;3.15;;;;;;;19.59;53.40;100186.72;4468519;32;33486;-69
2023/09/08 03:31:22;;;;;;;3.65;2.72;;;;;;;19.47;53.50;100178.00;4467959;32;33340;-70
2023/09/08 03:33:51;;;;;;;9.13;3.42;;;;;;;19.53;53.39;100182.78;4465982;32;33751;-70
2023/09/08 03:36:19;;;;;;;3.90;2.20;;;;;;;19.58;53.10;100179.56;4464916;32;35173;-70
2023/09/08 03:38:46;;;;;;;6.50;2.95;;;;;;;19.46;53.64;100181.72;4465111;32;33640;-70
2023/09/08 03:41:14;;;;;;;6.50;2.65;;;;;;;19.40;54.06;100189.66;4467898;32;32856;-70
2023/09/08 03:43:42;;;;;;;6.57;2.58;;;;;;;19.45;53.54;100174.56;4466030;32;33378;-70
2023/09/08 03:46:10;;;;;;;4.40;2.40;;;;;;;19.44;54.06;100181.03;4465008;32;33631;-70
2023/09/08 03:48:37;;;;;;;7.05;2.78;;;;;;;19.44;53.83;100178.31;4467211;32;35133;-70
2023/09/08 03:51:05;;;;;;;6.85;3.20;;;;;;;19.46;53.72;100175.44;4466765;32;33285;-70
2023/09/08 03:53:33;;;;;;;6.28;2.92;;;;;;;19.49;54.02;100183.28;4462856;32;33780;-70
2023/09/08 03:56:01;;;;;;;5.53;2.97;;;;;;;19.45;54.64;100180.00;4466897;32;32728;-70
2023/09/08 03:58:29;;;;;;;5.43;2.92;;;;;;;19.44;54.60;100183.75;4466098;32;33858;-70
2023/09/08 04:00:57;;;;;;;6.32;3.58;;;;;;;19.57;54.18;100187.88;4461239;32;34366;-70
2023/09/08 04:03:25;;;;;;;8.93;3.55;;;;;;;19.23;54.79;100194.13;4457757;32;34516;-71
2023/09/08 04:05:53;;;;;;;4.18;2.70;;;;;;;19.37;54.28;100187.28;4466496;32;35162;-69
2023/09/08 04:08:21;;;;;;;5.60;2.62;;;;;;;19.16;54.86;100187.62;4465030;32;34879;-70
2023/09/08 04:10:49;;;;;;;32.83;3.10;;;;;;;18.98;55.51;100187.69;4465043;32;33718;-71
2023/09/08 04:13:16;;;;;;;7.15;2.62;;;;;;;19.21;54.89;100191.56;4463870;32;34082;-70
2023/09/08 04:15:44;;;;;;;6.47;3.15;;;;;;;19.29;54.53;100196.19;4465717;32;33288;-69
2023/09/08 04:18:12;;;;;;;7.75;3.40;;;;;;;19.34;54.60;100187.59;4459076;32;33976;-69
2023/09/08 04:20:40;;;;;;;5.53;3.30;;;;;;;19.18;55.10;100186.47;4459517;32;34937;-69
2023/09/08 04:23:07;;;;;;;7.93;3.87;;;;;;;19.31;54.69;100184.19;4465255;32;34546;-69
2023/09/08 04:25:36;;;;;;;5.45;2.62;;;;;;;19.15;55.39;100184.06;4463542;32;33766;-72
2023/09/08 04:28:04;;;;;;;5.00;3.03;;;;;;;19.42;54.70;100191.22;4465684;32;33926;-71
2023/09/08 04:30:32;;;;;;;4.32;2.85;;;;;;;19.49;54.33;100183.28;4465393;32;34516;-71
2023/09/08 04:33:00;;;;;;;6.00;3.72;;;;;;;19.47;54.37;100193.44;4465933;32;33868;-71
2023/09/08 04:35:28;;;;;;;6.07;3.15;;;;;;;19.57;54.39;100191.44;4464252;32;34094;-71
2023/09/08 04:37:56;;;;;;;7.85;4.15;;;;;;;19.38;54.88;100192.53;4465595;32;34666;-72
2023/09/08 04:40:24;;;;;;;4.25;2.67;;;;;;;19.70;54.07;100194.59;4466678;32;33372;-71
2023/09/08 04:42:53;;;;;;;4.95;3.12;;;;;;;19.83;53.50;100196.84;4463676;32;32642;-70
2023/09/08 04:45:21;;;;;;;8.18;3.20;;;;;;;19.86;53.38;100196.53;4464580;32;33484;-70
2023/09/08 04:47:50;;;;;;;9.95;3.92;;;;;;;19.92;53.22;100200.47;4463469;32;33964;-71
2023/09/08 04:50:18;;;;;;;5.15;2.72;;;;;;;19.88;53.36;100193.66;4464353;32;33148;-71
2023/09/08 04:52:46;;;;;;;7.20;4.47;;;;;;;20.01;52.96;100194.91;4464710;32;33974;-71
2023/09/08 04:55:14;;;;;;;6.45;3.28;;;;;;;20.12;52.82;100190.16;4466682;32;35197;-71
2023/09/08 04:57:41;;;;;;;7.12;4.05;;;;;;;20.19;52.78;100202.94;4469410;32;34181;-71
2023/09/08 05:00:11;;;;;;;6.75;4.05;;;;;;;20.19;52.99;100202.06;4464431;32;33042;-72
2023/09/08 05:02:39;;;;;;;6.95;3.80;;;;;;;20.35;52.66;100203.97;4457418;32;34399;-72
2023/09/08 05:05:07;;;;;;;5.18;3.05;;;;;;;20.40;52.61;100205.19;4456840;32;33724;-72
2023/09/08 05:07:35;;;;;;;9.43;4.30;;;;;;;20.53;52.49;100202.00;4469751;32;33816;-71
2023/09/08 05:10:04;;;;;;;6.30;3.60;;;;;;;20.54;52.68;100200.13;4469714;32;33232;-71
2023/09/08 05:12:34;;;;;;;13.18;4.00;;;;;;;20.83;52.10;100200.50;4470943;32;35006;-71
2023/09/08 05:15:06;;;;;;;6.57;3.87;;;;;;;21.04;51.82;100205.44;4463788;32;32399;-71
2023/09/08 05:17:35;;;;;;;5.68;2.83;;;;;;;21.40;51.14;100202.34;4470489;32;33828;-72
2023/09/08 05:20:03;;;;;;;6.07;3.65;;;;;;;21.75;50.51;100209.22;4464033;32;34156;-72
2023/09/08 05:22:31;;;;;;;10.23;3.80;;;;;;;22.31;49.38;100203.69;4467718;32;33630;-71
2023/09/08 05:24:59;;;;;;;13.32;4.15;;;;;;;22.74;48.24;100202.22;4469896;32;34816;-71
2023/09/08 05:27:27;;;;;;;7.32;4.18;;;;;;;22.71;48.12;100207.19;4471698;32;34756;-71
2023/09/08 05:29:54;;;;;;;10.10;4.47;;;;;;;22.65;48.52;100206.03;4468903;32;33064;-71
2023/09/08 05:32:22;;;;;;;5.93;3.33;;;;;;;22.74;48.43;100207.66;4469482;32;35039;-71
2023/09/08 05:34:50;;;;;;;8.02;4.57;;;;;;;22.88;48.47;100207.91;4458164;32;33951;-70
2023/09/08 05:37:18;;;;;;;8.73;3.95;;;;;;;22.88;48.68;100216.94;4466002;32;33911;-71
2023/09/08 05:39:45;;;;;;;6.53;3.17;;;;;;;22.87;48.61;100212.50;4471787;32;34342;-70
2023/09/08 05:42:13;;;;;;;9.45;4.60;;;;;;;22.93;48.47;100209.09;4470531;32;33852;-70
2023/09/08 05:44:41;;;;;;;9.43;4.35;;;;;;;22.91;48.73;100211.09;4465630;32;34159;-68
2023/09/08 05:47:10;;;;;;;7.65;3.97;;;;;;;23.00;48.48;100203.75;4464821;32;34669;-68
2023/09/08 05:49:37;;;;;;;6.93;4.60;;;;;;;22.97;48.18;100207.69;4468656;32;32949;-69
2023/09/08 05:52:05;;;;;;;6.95;4.20;;;;;;;23.30;47.95;100212.81;4468534;32;34610;-69
2023/09/08 05:54:34;;;;;;;7.78;4.12;;;;;;;23.56;46.78;100217.00;4462455;32;34281;-71
2023/09/08 05:57:02;;;;;;;7.62;4.70;;;;;;;24.19;45.45;100207.38;4467559;32;34938;-70
2023/09/08 05:59:29;;;;;;;11.10;5.12;;;;;;;24.07;45.66;100203.44;4468141;32;34747;-70
2023/09/08 06:01:57;;;;;;;7.55;4.15;;;;;;;23.73;46.52;100209.53;4461429;32;34872;-70
2023/09/08 06:04:25;;;;;;;10.80;5.50;;;;;;;23.73;47.27;100210.37;4468956;32;34203;-70
2023/09/08 06:06:53;;;;;;;9.07;3.92;;;;;;;23.69;46.98;100214.47;4454466;32;33463;-70
2023/09/08 06:09:21;;;;;;;9.02;4.93;;;;;;;23.82;47.02;100205.63;4456620;32;34072;-70
2023/09/08 06:11:49;;;;;;;9.60;4.15;;;;;;;23.39;47.64;100208.97;4465587;32;33791;-70
2023/09/08 06:14:17;;;;;;;8.75;4.68;;;;;;;23.71;47.28;100206.97;4459741;32;34922;-70
2023/09/08 06:16:45;;;;;;;9.30;4.50;;;;;;;23.91;47.61;100216.28;4462393;32;33534;-70
2023/09/08 06:19:13;;;;;;;7.50;3.75;;;;;;;24.17;47.28;100217.66;4462984;32;34152;-70
2023/09/08 06:21:41;;;;;;;13.02;4.35;;;;;;;24.17;46.59;100225.84;4467961;32;34186;-70
2023/09/08 06:24:08;;;;;;;9.50;5.47;;;;;;;24.05;47.04;100221.94;4465377;32;34130;-72
2023/09/08 06:26:37;;;;;;;8.68;4.30;;;;;;;24.20;46.77;100219.16;4461080;32;34596;-70
2023/09/08 06:29:05;;;;;;;7.45;3.80;;;;;;;24.36;46.66;100225.25;4466289;32;33453;-70
2023/09/08 06:31:33;;;;;;;8.57;4.45;;;;;;;24.26;46.49;100227.44;4466813;32;34025;-71
2023/09/08 06:34:01;;;;;;;12.15;4.85;;;;;;;24.51;45.19;100222.50;4464231;32;33623;-70
2023/09/08 06:36:29;;;;;;;7.20;3.78;;;;;;;24.42;45.29;100222.81;4462448;32;34608;-71
2023/09/08 06:38:57;;;;;;;7.78;3.28;;;;;;;24.34;43.42;100221.03;4467944;32;33427;-70
2023/09/08 06:41:27;;;;;;;8.80;5.03;;;;;;;24.36;44.62;100225.25;4467092;32;33341;-70
2023/09/08 06:43:55;;;;;;;8.32;3.92;;;;;;;24.23;44.87;100230.56;4465036;32;35397;-71
2023/09/08 06:46:23;;;;;;;7.72;3.00;;;;;;;24.19;44.36;100229.25;4466997;32;35020;-70
2023/09/08 06:48:51;;;;;;;11.00;3.35;;;;;;;23.52;45.40;100232.06;4465849;32;33438;-70
2023/09/08 06:51:19;;;;;;;6.82;3.20;;;;;;;24.10;44.84;100224.94;4466530;32;33627;-69
2023/09/08 06:53:55;;;;;;;7.55;3.67;;;;;;;24.34;43.77;100221.03;4463037;32;33856;-68
2023/09/08 06:56:23;;;;;;;8.55;4.65;;;;;;;24.61;43.28;100230.41;4466553;32;34513;-68
2023/09/08 06:58:51;;;;;;;9.05;3.65;;;;;;;24.48;43.18;100225.62;4468448;32;32955;-68
2023/09/08 07:01:19;;;;;;;8.10;3.62;;;;;;;24.36;43.61;100221.66;4462135;32;34181;-68
2023/09/08 07:03:47;;;;;;;9.93;5.07;;;;;;;24.34;43.19;100226.50;4458393;32;34284;-68
2023/09/08 07:06:16;;;;;;;12.75;4.50;;;;;;;24.20;43.42;100230.09;4466558;32;33684;-68
2023/09/08 07:08:44;;;;;;;7.78;4.20;;;;;;;24.15;44.00;100226.06;4465609;32;33292;-68
2023/09/08 07:11:12;;;;;;;8.38;4.47;;;;;;;24.11;43.45;100226.66;4465795;32;33894;-68
2023/09/08 07:13:44;;;;;;;9.38;3.85;;;;;;;24.10;43.53;100224.94;4463073;32;34015;-68
2023/09/08 07:16:13;;;;;;;8.18;4.15;;;;;;;24.55;43.94;100223.81;4466870;32;33871;-69
2023/09/08 07:18:40;;;;;;;7.80;4.10;;;;;;;24.39;43.40;100222.12;4466065;32;34734;-68
2023/09/08 07:21:08;;;;;;;9.95;4.70;;;;;;;24.37;43.17;100224.22;4462017;32;33420;-68
2023/09/08 07:23:37;;;;;;;8.38;4.18;;;;;;;23.98;43.47;100215.50;4457517;32;34026;-68
2023/09/08 07:26:05;;;;;;;8.68;4.90;;;;;;;24.51;43.08;100214.28;4463807;32;35481;-68
2023/09/08 07:28:34;;;;;;;8.50;3.62;;;;;;;24.52;42.83;100215.12;4468382;32;34519;-68
2023/09/08 07:31:04;;;;;;;11.50;4.55;;;;;;;24.23;43.95;100214.16;4466156;32;33920;-68
2023/09/08 07:33:32;;;;;;;8.52;4.62;;;;;;;24.63;42.59;100211.91;4466416;32;34236;-68
2023/09/08 07:36:07;;;;;;;9.73;4.62;;;;;;;24.26;43.02;100204.72;4462706;32;34032;-68
2023/09/08 07:38:34;;;;;;;;;;;;;;;24.43;43.63;100202.63;4467365;32;32379;-70
2023/09/08 07:41:03;;;;;;;9.75;3.80;;;;;;;24.67;42.68;100205.00;4465112;32;33014;-68
2023/09/08 07:43:31;;;;;;;9.55;4.60;;;;;;;24.86;42.02;100200.75;4466696;32;35199;-69
2023/09/08 07:45:59;;;;;;;11.20;3.92;;;;;;;25.00;42.10;100201.72;4464488;32;33452;-68
2023/09/08 07:48:27;;;;;;;10.43;4.62;;;;;;;24.78;42.93;100195.41;4466453;32;33552;-68
2023/09/08 07:50:54;;;;;;;10.70;4.78;;;;;;;25.01;42.29;100193.31;4465617;32;33956;-68
2023/09/08 07:53:22;;;;;;;8.55;4.43;;;;;;;24.87;42.67;100197.81;4462935;32;35219;-68
2023/09/08 07:55:50;;;;;;;8.55;4.30;;;;;;;25.29;41.56;100196.06;4464711;32;34841;-68
2023/09/08 07:58:17;;;;;;;15.43;4.28;;;;;;;25.27;41.74;100195.44;4466213;32;34547;-68
2023/09/08 08:00:45;;;;;;;8.65;4.47;;;;;;;25.35;42.45;100196.31;4464487;32;33924;-68
2023/09/08 08:03:14;;;;;;;24.60;5.25;;;;;;;25.58;40.33;100199.63;4463973;32;33771;-68
2023/09/08 08:05:41;;;;;;;5.68;3.75;;;;;;;25.40;41.63;100193.84;4462299;32;34041;-68
2023/09/08 08:08:09;;;;;;;7.68;3.55;;;;;;;25.16;42.77;100197.88;4465882;32;33332;-67
2023/09/08 08:10:44;;;;;;;8.75;4.12;;;;;;;25.53;40.54;100199.41;4464095;32;33581;-68
2023/09/08 08:13:32;;;;;;;8.48;4.25;;;;;;;25.75;40.92;100200.19;4462793;32;32556;-68
2023/09/08 08:16:00;;;;;;;8.50;4.47;;;;;;;25.60;41.15;100194.81;4461155;32;33654;-67
2023/09/08 08:18:27;;;;;;;12.65;4.82;;;;;;;25.17;41.34;100200.44;4465040;32;33493;-67
2023/09/08 08:20:55;;;;;;;8.75;5.20;;;;;;;25.92;39.61;100204.28;4460197;32;33664;-68
2023/09/08 08:23:23;;;;;;;12.27;5.40;;;;;;;25.56;41.08;100199.84;4466931;32;34220;-69
2023/09/08 08:25:50;;;;;;;12.52;6.05;;;;;;;25.50;41.79;100195.16;4464500;32;33851;-68
2023/09/08 08:28:18;;;;;;;10.70;4.37;;;;;;;25.86;41.79;100201.53;4462708;32;32919;-68
2023/09/08 08:30:47;;;;;;;7.53;3.70;;;;;;;26.12;40.64;100193.41;4463640;32;33816;-68
2023/09/08 08:33:15;;;;;;;7.53;3.97;;;;;;;25.99;39.98;100191.44;4462305;32;33983;-68
2023/09/08 08:35:50;;;;;;;9.90;4.00;;;;;;;25.73;41.52;100186.66;4462279;32;33602;-69
2023/09/08 08:38:18;;;;;;;12.80;5.87;;;;;;;25.40;41.68;100186.47;4466941;32;33877;-68
2023/09/08 08:40:46;;;;;;;9.70;5.12;;;;;;;25.69;41.41;100193.59;4464206;32;34761;-69
2023/09/08 08:43:13;;;;;;;7.90;5.22;;;;;;;26.05;40.55;100180.72;4463857;32;34334;-69
2023/09/08 08:45:43;;;;;;;12.02;5.85;;;;;;;26.06;40.96;100177.75;4466072;32;34417;-70
2023/09/08 08:48:12;;;;;;;11.12;5.40;;;;;;;26.20;40.30;100184.16;4466022;32;33042;-68
2023/09/08 08:50:42;;;;;;;12.10;5.10;;;;;;;26.31;40.39;100179.97;4457107;32;34763;-68
2023/09/08 08:53:10;;;;;;;13.15;5.40;;;;;;;26.43;39.95;100183.81;4465383;32;35037;-69
2023/09/08 08:55:38;;;;;;;9.45;4.57;;;;;;;26.55;40.27;100181.31;4463130;32;33948;-68
2023/09/08 08:58:08;;;;;;;11.90;4.43;;;;;;;26.50;39.51;100181.09;4458215;32;33549;-68
2023/09/08 09:00:37;;;;;;;8.40;4.53;;;;;;;26.52;40.36;100177.09;4463154;32;33660;-69
2023/09/08 09:03:06;;;;;;;10.13;4.62;;;;;;;26.52;39.74;100177.09;4452798;32;35729;-69
2023/09/08 09:05:42;;;;;;;12.63;5.18;;;;;;;26.70;38.94;100171.81;4450220;32;33915;-69
2023/09/08 09:08:16;;;;;;;9.32;4.57;;;;;;;26.90;38.96;100171.00;4437039;32;33240;-69
2023/09/08 09:10:44;;;;;;;9.93;4.57;;;;;;;26.73;39.72;100177.97;4449721;32;33967;-68
2023/09/08 09:13:11;;;;;;;9.77;5.30;;;;;;;27.04;38.53;100178.19;4456195;32;35271;-68
2023/09/08 09:15:40;;;;;;;8.90;4.55;;;;;;;27.00;38.44;100170.56;4451897;32;33473;-69
2023/09/08 09:18:08;;;;;;;10.38;6.30;;;;;;;27.22;39.44;100171.22;4457885;32;34138;-70
2023/09/08 09:20:36;;;;;;;10.98;5.35;;;;;;;27.06;39.68;100170.59;4456500;32;33620;-67
2023/09/08 09:23:04;;;;;;;7.43;4.50;;;;;;;27.37;38.72;100166.34;4454828;32;32987;-67
2023/09/08 09:25:32;;;;;;;9.13;5.00;;;;;;;27.45;38.13;100163.38;4436015;32;33736;-67
2023/09/08 09:28:02;;;;;;;10.13;4.60;;;;;;;27.69;37.76;100163.72;4437622;32;33466;-67
2023/09/08 09:30:47;;;;;;;8.10;4.47;;;;;;;27.75;37.86;100162.87;4436389;32;33657;-67
2023/09/08 09:33:15;;;;;;;10.65;5.87;;;;;;;27.55;37.86;100165.69;4445710;32;35114;-67
2023/09/08 09:35:45;;;;;;;10.07;5.43;;;;;;;27.41;38.35;100159.34;4439599;32;34419;-68
2023/09/08 09:38:13;;;;;;;9.48;4.03;;;;;;;27.85;38.08;100155.03;4443072;32;33065;-68
2023/09/08 09:40:41;;;;;;;7.95;4.53;;;;;;;27.84;36.68;100156.09;4454977;32;34309;-68
2023/09/08 09:43:11;;;;;;;10.85;5.65;;;;;;;27.85;36.31;100160.53;4453340;32;33398;-67
2023/09/08 09:45:39;;;;;;;9.88;4.78;;;;;;;27.57;37.67;100158.03;4454865;32;35068;-66
2023/09/08 09:48:09;;;;;;;7.32;4.25;;;;;;;27.45;37.48;100157.88;4451570;32;33508;-66
2023/09/08 09:50:41;;;;;;;8.13;3.60;;;;;;;27.30;37.23;100160.88;4455647;32;32622;-66
2023/09/08 09:53:14;;;;;;;9.68;5.10;;;;;;;27.77;36.01;100158.87;4455260;32;34794;-67
2023/09/08 09:55:43;;;;;;;8.80;4.93;;;;;;;26.95;37.58;100163.81;4453179;32;34566;-67
2023/09/08 09:58:11;;;;;;;8.82;5.25;;;;;;;27.47;37.75;100157.66;4464187;32;33046;-66
2023/09/08 10:00:41;;;;;;;14.73;5.12;;;;;;;27.73;37.73;100156.72;4463210;32;33952;-67
2023/09/08 10:03:10;;;;;;;10.00;4.78;;;;;;;28.08;36.27;100155.34;4462722;32;33913;-67
2023/09/08 10:05:38;;;;;;;7.75;4.35;;;;;;;28.20;36.55;100157.41;4462634;32;33993;-67
2023/09/08 10:08:06;;;;;;;10.10;4.57;;;;;;;27.77;36.92;100164.38;4464549;32;33480;-67
2023/09/08 10:10:34;;;;;;;9.88;4.78;;;;;;;28.14;35.58;100158.28;4454604;32;33773;-67
2023/09/08 10:13:06;;;;;;;7.10;4.03;;;;;;;28.15;36.12;100158.06;4463563;32;33692;-67
2023/09/08 10:15:34;;;;;;;8.43;4.65;;;;;;;28.33;35.39;100154.59;4463378;32;33944;-67
2023/09/08 10:18:04;;;;;;;8.77;4.50;;;;;;;28.25;34.63;100152.06;4460715;32;33223;-68
2023/09/08 10:20:34;;;;;;;7.50;4.55;;;;;;;28.41;35.38;100146.09;4466028;32;34429;-70
2023/09/08 10:23:08;;;;;;;10.52;4.62;;;;;;;28.42;34.78;100142.28;4455414;32;33759;-67
2023/09/08 10:25:42;;;;;;;9.90;5.43;;;;;;;28.42;35.02;100145.03;4448002;32;33522;-70
2023/09/08 10:28:12;;;;;;;7.62;4.65;;;;;;;28.63;35.68;100151.22;4445793;32;33281;-72
2023/09/08 10:30:40;;;;;;;11.95;5.05;;;;;;;28.63;35.72;100141.06;4441151;32;34574;-70
2023/09/08 10:33:09;;;;;;;7.60;4.80;;;;;;;28.61;35.19;100137.69;4445897;32;34712;-69
2023/09/08 10:35:40;;;;;;;12.23;5.85;;;;;;;28.73;34.83;100135.03;4441269;32;33658;-68
2023/09/08 10:38:27;;;;;;;8.07;4.80;;;;;;;28.80;34.22;100135.87;4436746;32;33411;-69
2023/09/08 10:41:17;;;;;;;10.02;5.30;;;;;;;28.89;33.77;100131.75;4446575;32;33677;-70
2023/09/08 10:43:46;;;;;;;10.05;5.12;;;;;;;28.55;34.14;100133.09;4442852;32;35010;-70
2023/09/08 10:46:27;;;;;;;9.07;5.28;;;;;;;28.70;34.92;100127.22;4441813;32;33587;-71
2023/09/08 10:49:02;;;;;;;6.72;4.32;;;;;;;28.53;33.26;100118.69;4446361;32;32945;-67
2023/09/08 10:51:30;;;;;;;8.13;5.50;;;;;;;28.65;33.18;100135.34;4436586;32;35205;-68
2023/09/08 10:53:58;;;;;;;9.32;5.37;;;;;;;28.12;34.68;100132.88;4440529;32;33828;-67
2023/09/08 10:56:49;;;;;;;9.13;5.37;;;;;;;27.99;35.52;100131.87;4453221;32;33571;-67
2023/09/08 10:59:17;;;;;;;10.40;4.90;;;;;;;28.88;33.96;100124.53;4459700;32;34551;-68
2023/09/08 11:01:47;;;;;;;16.45;5.82;;;;;;;28.87;33.91;100127.53;4462401;32;33401;-68
2023/09/08 11:04:18;;;;;;;9.32;5.03;;;;;;;28.99;33.46;100128.50;4457785;32;35173;-67
2023/09/08 11:06:48;;;;;;;7.68;4.68;;;;;;;29.33;33.49;100118.00;4418544;32;35594;-69
2023/09/08 11:09:16;;;;;;;9.52;5.72;;;;;;;29.29;32.30;100120.38;4419066;32;32992;-69
2023/09/08 11:11:44;;;;;;;9.48;5.25;;;;;;;29.50;32.41;100127.34;4430302;32;33566;-68
2023/09/08 11:14:13;;;;;;;9.98;4.75;;;;;;;29.80;32.63;100121.94;4423040;32;33700;-68
2023/09/08 11:16:40;;;;;;;8.82;5.28;;;;;;;29.60;33.52;100118.53;4429268;32;33908;-69
2023/09/08 11:19:09;;;;;;;8.93;6.07;;;;;;;29.83;32.22;100120.62;4422258;32;33129;-69
2023/09/08 11:21:37;;;;;;;8.48;5.20;;;;;;;29.51;32.89;100117.19;4421815;32;33983;-68
2023/09/08 11:24:09;;;;;;;8.18;4.47;;;;;;;29.49;32.32;100117.38;4421865;32;34398;-69
2023/09/08 11:26:37;;;;;;;7.78;4.90;;;;;;;29.25;32.09;100114.47;4398759;32;34846;-69
2023/09/08 11:29:05;;;;;;;7.65;4.28;;;;;;;29.53;32.19;100106.75;4402155;32;32964;-69
2023/09/08 11:31:34;;;;;;;9.30;3.80;;;;;;;29.73;31.98;100104.63;4400208;32;32674;-69